sensor_id;sensor_type;location;lat;lon;timestamp;temperature;humidity
66726;HTU21D;53638;51.062;5.804;2023-05-10T00:41:46;14.50;118.99
66726;HTU21D;53638;51.062;5.804;2023-05-10T01:24:09;14.50;118.99
66726;HTU21D;53638;51.062;5.804;2023-05-10T01:49:59;14.28;118.99
66726;HTU21D;53638;51.062;5.804;2023-05-10T02:13:06;14.17;118.99
66726;HTU21D;53638;51.062;5.804;2023-05-10T02:17:04;14.09;118.99
66726;HTU21D;53638;51.062;5.804;2023-05-10T02:25:43;14.18;118.99
66726;HTU21D;53638;51.062;5.804;2023-05-10T02:38:21;14.18;118.99
66726;HTU21D;53638;51.062;5.804;2023-05-10T02:53:55;13.85;118.99
66726;HTU21D;53638;51.062;5.804;2023-05-10T02:57:47;13.82;118.99
66726;HTU21D;53638;51.062;5.804;2023-05-10T03:09:01;13.64;118.99
66726;HTU21D;53638;51.062;5.804;2023-05-10T03:17:20;13.49;118.99
66726;HTU21D;53638;51.062;5.804;2023-05-10T03:21:02;13.50;118.99
66726;HTU21D;53638;51.062;5.804;2023-05-10T03:25:07;13.55;118.99
66726;HTU21D;53638;51.062;5.804;2023-05-10T03:29:01;13.58;118.99
66726;HTU21D;53638;51.062;5.804;2023-05-10T03:31:54;13.62;118.99
66726;HTU21D;53638;51.062;5.804;2023-05-10T03:43:37;13.50;118.99
66726;HTU21D;53638;51.062;5.804;2023-05-10T03:46:55;13.48;118.99
66726;HTU21D;53638;51.062;5.804;2023-05-10T04:01:43;13.48;118.99
66726;HTU21D;53638;51.062;5.804;2023-05-10T04:30:09;13.73;118.99
66726;HTU21D;53638;51.062;5.804;2023-05-10T05:01:34;13.91;118.99
66726;HTU21D;53638;51.062;5.804;2023-05-10T05:09:53;13.93;118.99
66726;HTU21D;53638;51.062;5.804;2023-05-10T05:16:40;13.93;118.99
66726;HTU21D;53638;51.062;5.804;2023-05-10T05:20:18;13.91;118.99
66726;HTU21D;53638;51.062;5.804;2023-05-10T05:23:10;13.91;118.99
66726;HTU21D;53638;51.062;5.804;2023-05-10T05:26:09;13.85;118.99
66726;HTU21D;53638;51.062;5.804;2023-05-10T05:28:39;13.84;118.99
66726;HTU21D;53638;51.062;5.804;2023-05-10T06:03:43;14.20;118.99
66726;HTU21D;53638;51.062;5.804;2023-05-10T06:07:15;14.23;118.99
66726;HTU21D;53638;51.062;5.804;2023-05-10T06:09:42;14.25;118.99
66726;HTU21D;53638;51.062;5.804;2023-05-10T06:12:07;14.32;118.99
66726;HTU21D;53638;51.062;5.804;2023-05-10T06:14:33;14.40;118.99
66726;HTU21D;53638;51.062;5.804;2023-05-10T06:16:59;14.51;118.99
66726;HTU21D;53638;51.062;5.804;2023-05-10T06:19:25;14.53;118.99
66726;HTU21D;53638;51.062;5.804;2023-05-10T06:21:52;14.67;118.99
66726;HTU21D;53638;51.062;5.804;2023-05-10T06:24:17;14.83;118.99
66726;HTU21D;53638;51.062;5.804;2023-05-10T06:26:43;14.98;118.99
66726;HTU21D;53638;51.062;5.804;2023-05-10T06:29:09;14.97;118.99
66726;HTU21D;53638;51.062;5.804;2023-05-10T06:31:35;14.95;118.99
66726;HTU21D;53638;51.062;5.804;2023-05-10T06:34:01;14.97;118.99
66726;HTU21D;53638;51.062;5.804;2023-05-10T06:36:30;14.96;118.99
66726;HTU21D;53638;51.062;5.804;2023-05-10T06:40:10;14.84;118.99
66726;HTU21D;53638;51.062;5.804;2023-05-10T06:51:08;14.72;118.99
66726;HTU21D;53638;51.062;5.804;2023-05-10T06:53:34;14.71;118.99
66726;HTU21D;53638;51.062;5.804;2023-05-10T06:56:05;14.70;118.99
66726;HTU21D;53638;51.062;5.804;2023-05-10T06:59:02;14.72;118.99
66726;HTU21D;53638;51.062;5.804;2023-05-10T07:01:29;14.77;118.99
66726;HTU21D;53638;51.062;5.804;2023-05-10T07:04:23;14.75;118.99
66726;HTU21D;53638;51.062;5.804;2023-05-10T07:07:12;14.75;118.99
66726;HTU21D;53638;51.062;5.804;2023-05-10T07:09:39;14.81;118.99
66726;HTU21D;53638;51.062;5.804;2023-05-10T07:12:30;14.81;118.99
66726;HTU21D;53638;51.062;5.804;2023-05-10T07:14:56;14.84;118.99
66726;HTU21D;53638;51.062;5.804;2023-05-10T07:17:22;14.86;118.99
66726;HTU21D;53638;51.062;5.804;2023-05-10T07:19:51;14.83;118.99
66726;HTU21D;53638;51.062;5.804;2023-05-10T07:22:17;14.74;118.99
66726;HTU21D;53638;51.062;5.804;2023-05-10T07:24:47;14.58;118.99
66726;HTU21D;53638;51.062;5.804;2023-05-10T07:27:51;14.50;118.99
66726;HTU21D;53638;51.062;5.804;2023-05-10T07:30:08;14.36;118.99
66726;HTU21D;53638;51.062;5.804;2023-05-10T07:32:37;14.25;118.99
66726;HTU21D;53638;51.062;5.804;2023-05-10T07:35:03;14.23;118.99
66726;HTU21D;53638;51.062;5.804;2023-05-10T07:37:29;14.20;118.99
66726;HTU21D;53638;51.062;5.804;2023-05-10T07:39:55;14.26;118.99
66726;HTU21D;53638;51.062;5.804;2023-05-10T07:42:24;14.37;118.99
66726;HTU21D;53638;51.062;5.804;2023-05-10T07:44:50;14.44;118.99
66726;HTU21D;53638;51.062;5.804;2023-05-10T07:47:19;14.39;118.99
66726;HTU21D;53638;51.062;5.804;2023-05-10T07:49:45;14.25;118.99
66726;HTU21D;53638;51.062;5.804;2023-05-10T07:52:11;14.26;118.99
66726;HTU21D;53638;51.062;5.804;2023-05-10T07:54:37;14.28;118.99
66726;HTU21D;53638;51.062;5.804;2023-05-10T07:57:03;14.32;118.99
66726;HTU21D;53638;51.062;5.804;2023-05-10T07:59:29;14.29;118.99
66726;HTU21D;53638;51.062;5.804;2023-05-10T08:01:55;14.32;118.99
66726;HTU21D;53638;51.062;5.804;2023-05-10T08:04:23;14.29;118.99
66726;HTU21D;53638;51.062;5.804;2023-05-10T08:06:49;14.35;118.99
66726;HTU21D;53638;51.062;5.804;2023-05-10T08:09:19;14.24;118.99
66726;HTU21D;53638;51.062;5.804;2023-05-10T08:12:09;14.17;118.99
66726;HTU21D;53638;51.062;5.804;2023-05-10T08:14:37;14.09;118.99
66726;HTU21D;53638;51.062;5.804;2023-05-10T08:17:04;13.98;118.99
66726;HTU21D;53638;51.062;5.804;2023-05-10T08:19:30;13.97;118.99
66726;HTU21D;53638;51.062;5.804;2023-05-10T08:21:56;13.95;118.99
66726;HTU21D;53638;51.062;5.804;2023-05-10T08:24:22;14.10;118.99
66726;HTU21D;53638;51.062;5.804;2023-05-10T08:26:51;14.17;118.99
66726;HTU21D;53638;51.062;5.804;2023-05-10T08:29:17;14.11;118.99
66726;HTU21D;53638;51.062;5.804;2023-05-10T08:31:46;14.04;118.99
66726;HTU21D;53638;51.062;5.804;2023-05-10T08:34:12;13.95;118.99
66726;HTU21D;53638;51.062;5.804;2023-05-10T08:36:38;14.06;118.99
66726;HTU21D;53638;51.062;5.804;2023-05-10T08:39:04;13.89;118.99
66726;HTU21D;53638;51.062;5.804;2023-05-10T08:41:33;14.05;118.99
66726;HTU21D;53638;51.062;5.804;2023-05-10T08:44:04;14.04;118.99
66726;HTU21D;53638;51.062;5.804;2023-05-10T08:46:33;13.96;118.99
66726;HTU21D;53638;51.062;5.804;2023-05-10T08:49:04;14.12;118.99
66726;HTU21D;53638;51.062;5.804;2023-05-10T08:51:37;14.36;118.99
66726;HTU21D;53638;51.062;5.804;2023-05-10T08:54:05;14.44;118.99
66726;HTU21D;53638;51.062;5.804;2023-05-10T08:56:37;14.52;118.99
66726;HTU21D;53638;51.062;5.804;2023-05-10T08:59:25;14.56;118.99
66726;HTU21D;53638;51.062;5.804;2023-05-10T09:02:22;14.75;118.99
66726;HTU21D;53638;51.062;5.804;2023-05-10T09:05:59;14.84;118.99
66726;HTU21D;53638;51.062;5.804;2023-05-10T09:08:26;14.84;118.99
66726;HTU21D;53638;51.062;5.804;2023-05-10T09:10:56;14.94;118.99
66726;HTU21D;53638;51.062;5.804;2023-05-10T09:13:23;14.99;118.99
66726;HTU21D;53638;51.062;5.804;2023-05-10T09:15:50;15.12;118.99
66726;HTU21D;53638;51.062;5.804;2023-05-10T09:18:17;15.26;118.99
66726;HTU21D;53638;51.062;5.804;2023-05-10T09:20:43;15.29;118.99
66726;HTU21D;53638;51.062;5.804;2023-05-10T09:23:09;15.31;118.99
66726;HTU21D;53638;51.062;5.804;2023-05-10T09:25:35;15.29;118.99
66726;HTU21D;53638;51.062;5.804;2023-05-10T09:28:08;15.36;118.99
66726;HTU21D;53638;51.062;5.804;2023-05-10T09:30:35;15.36;118.99
66726;HTU21D;53638;51.062;5.804;2023-05-10T09:33:01;15.43;118.99
66726;HTU21D;53638;51.062;5.804;2023-05-10T09:35:29;15.54;118.99
66726;HTU21D;53638;51.062;5.804;2023-05-10T09:37:57;15.59;118.99
66726;HTU21D;53638;51.062;5.804;2023-05-10T09:40:26;15.71;118.99
66726;HTU21D;53638;51.062;5.804;2023-05-10T09:42:55;15.84;118.99
66726;HTU21D;53638;51.062;5.804;2023-05-10T09:45:23;15.95;118.99
66726;HTU21D;53638;51.062;5.804;2023-05-10T09:47:49;16.08;118.99
66726;HTU21D;53638;51.062;5.804;2023-05-10T09:50:15;16.17;118.99
66726;HTU21D;53638;51.062;5.804;2023-05-10T09:52:52;16.36;118.99
66726;HTU21D;53638;51.062;5.804;2023-05-10T09:55:21;16.43;118.99
66726;HTU21D;53638;51.062;5.804;2023-05-10T09:57:49;16.45;118.99
66726;HTU21D;53638;51.062;5.804;2023-05-10T10:00:18;16.42;118.99
66726;HTU21D;53638;51.062;5.804;2023-05-10T10:02:47;16.40;118.99
66726;HTU21D;53638;51.062;5.804;2023-05-10T10:08:42;16.51;118.99
66726;HTU21D;53638;51.062;5.804;2023-05-10T10:11:08;16.71;118.99
66726;HTU21D;53638;51.062;5.804;2023-05-10T10:13:34;16.74;118.99
66726;HTU21D;53638;51.062;5.804;2023-05-10T10:16:00;16.46;118.99
66726;HTU21D;53638;51.062;5.804;2023-05-10T10:18:27;16.45;118.99
66726;HTU21D;53638;51.062;5.804;2023-05-10T10:20:55;16.35;118.99
66726;HTU21D;53638;51.062;5.804;2023-05-10T10:23:22;16.29;118.99
66726;HTU21D;53638;51.062;5.804;2023-05-10T10:25:49;16.29;118.99
66726;HTU21D;53638;51.062;5.804;2023-05-10T10:28:24;16.27;118.99
66726;HTU21D;53638;51.062;5.804;2023-05-10T10:30:54;16.22;118.99
66726;HTU21D;53638;51.062;5.804;2023-05-10T10:33:40;16.17;118.99
66726;HTU21D;53638;51.062;5.804;2023-05-10T10:36:15;16.20;118.99
66726;HTU21D;53638;51.062;5.804;2023-05-10T10:41:32;16.44;118.99
66726;HTU21D;53638;51.062;5.804;2023-05-10T10:47:04;17.07;118.99
66726;HTU21D;53638;51.062;5.804;2023-05-10T10:52:23;17.08;118.99
66726;HTU21D;53638;51.062;5.804;2023-05-10T10:54:51;16.90;118.99
66726;HTU21D;53638;51.062;5.804;2023-05-10T10:57:19;16.73;118.99
66726;HTU21D;53638;51.062;5.804;2023-05-10T10:59:47;16.80;118.99
66726;HTU21D;53638;51.062;5.804;2023-05-10T11:02:44;17.29;118.99
66726;HTU21D;53638;51.062;5.804;2023-05-10T11:05:25;17.90;118.99
66726;HTU21D;53638;51.062;5.804;2023-05-10T11:07:54;18.41;118.99
66726;HTU21D;53638;51.062;5.804;2023-05-10T11:10:21;18.88;118.99
66726;HTU21D;53638;51.062;5.804;2023-05-10T11:12:55;19.07;118.99
66726;HTU21D;53638;51.062;5.804;2023-05-10T11:15:35;19.00;118.99
66726;HTU21D;53638;51.062;5.804;2023-05-10T11:18:21;18.79;118.99
66726;HTU21D;53638;51.062;5.804;2023-05-10T11:21:00;18.50;118.99
66726;HTU21D;53638;51.062;5.804;2023-05-10T11:23:31;18.21;118.99
66726;HTU21D;53638;51.062;5.804;2023-05-10T11:25:58;18.19;118.99
66726;HTU21D;53638;51.062;5.804;2023-05-10T11:28:26;18.20;118.99
66726;HTU21D;53638;51.062;5.804;2023-05-10T11:30:53;18.20;118.99
66726;HTU21D;53638;51.062;5.804;2023-05-10T11:33:19;18.09;118.99
66726;HTU21D;53638;51.062;5.804;2023-05-10T11:35:46;18.06;118.99
66726;HTU21D;53638;51.062;5.804;2023-05-10T11:38:14;18.28;118.99
66726;HTU21D;53638;51.062;5.804;2023-05-10T11:40:43;18.54;118.99
66726;HTU21D;53638;51.062;5.804;2023-05-10T11:43:09;18.93;118.99
66726;HTU21D;53638;51.062;5.804;2023-05-10T11:45:37;19.44;118.99
66726;HTU21D;53638;51.062;5.804;2023-05-10T11:48:03;19.81;118.99
66726;HTU21D;53638;51.062;5.804;2023-05-10T11:50:29;19.92;118.99
66726;HTU21D;53638;51.062;5.804;2023-05-10T11:52:56;20.05;118.99
66726;HTU21D;53638;51.062;5.804;2023-05-10T11:55:23;20.46;118.99
66726;HTU21D;53638;51.062;5.804;2023-05-10T11:57:54;20.76;118.99
66726;HTU21D;53638;51.062;5.804;2023-05-10T12:00:20;20.75;118.99
66726;HTU21D;53638;51.062;5.804;2023-05-10T12:02:47;20.24;118.99
66726;HTU21D;53638;51.062;5.804;2023-05-10T12:05:14;19.71;118.99
66726;HTU21D;53638;51.062;5.804;2023-05-10T12:07:40;19.20;118.99
66726;HTU21D;53638;51.062;5.804;2023-05-10T12:10:07;19.16;118.99
66726;HTU21D;53638;51.062;5.804;2023-05-10T12:12:36;19.44;118.99
66726;HTU21D;53638;51.062;5.804;2023-05-10T12:15:03;19.66;118.99
66726;HTU21D;53638;51.062;5.804;2023-05-10T12:17:29;19.74;118.99
66726;HTU21D;53638;51.062;5.804;2023-05-10T12:20:12;19.73;118.99
66726;HTU21D;53638;51.062;5.804;2023-05-10T12:22:38;19.73;118.99
66726;HTU21D;53638;51.062;5.804;2023-05-10T12:25:04;19.96;118.99
66726;HTU21D;53638;51.062;5.804;2023-05-10T12:27:32;20.46;118.99
66726;HTU21D;53638;51.062;5.804;2023-05-10T12:29:59;20.94;118.99
66726;HTU21D;53638;51.062;5.804;2023-05-10T12:32:39;21.13;118.99
66726;HTU21D;53638;51.062;5.804;2023-05-10T12:35:05;21.02;118.99
66726;HTU21D;53638;51.062;5.804;2023-05-10T12:37:31;20.69;118.99
66726;HTU21D;53638;51.062;5.804;2023-05-10T12:40:01;20.53;118.99
66726;HTU21D;53638;51.062;5.804;2023-05-10T12:42:28;20.83;118.99
66726;HTU21D;53638;51.062;5.804;2023-05-10T12:44:56;20.94;118.99
66726;HTU21D;53638;51.062;5.804;2023-05-10T12:47:22;20.69;118.99
66726;HTU21D;53638;51.062;5.804;2023-05-10T12:49:48;20.98;118.99
66726;HTU21D;53638;51.062;5.804;2023-05-10T12:52:14;21.25;118.99
66726;HTU21D;53638;51.062;5.804;2023-05-10T12:54:40;21.31;118.99
66726;HTU21D;53638;51.062;5.804;2023-05-10T12:57:06;21.69;118.99
66726;HTU21D;53638;51.062;5.804;2023-05-10T12:59:32;22.47;118.99
66726;HTU21D;53638;51.062;5.804;2023-05-10T13:01:58;24.28;118.99
66726;HTU21D;53638;51.062;5.804;2023-05-10T13:04:27;25.19;118.99
66726;HTU21D;53638;51.062;5.804;2023-05-10T13:06:55;25.13;108.34
66726;HTU21D;53638;51.062;5.804;2023-05-10T13:09:26;25.60;113.06
66726;HTU21D;53638;51.062;5.804;2023-05-10T13:11:54;26.31;110.44
66726;HTU21D;53638;51.062;5.804;2023-05-10T13:14:36;26.94;104.39
66726;HTU21D;53638;51.062;5.804;2023-05-10T13:17:05;26.62;103.53
66726;HTU21D;53638;51.062;5.804;2023-05-10T13:20:20;25.27;106.43
66726;HTU21D;53638;51.062;5.804;2023-05-10T13:22:46;25.65;104.34
66726;HTU21D;53638;51.062;5.804;2023-05-10T13:25:13;25.88;104.00
66726;HTU21D;53638;51.062;5.804;2023-05-10T13:27:39;25.23;101.67
66726;HTU21D;53638;51.062;5.804;2023-05-10T13:30:06;25.44;105.00
66726;HTU21D;53638;51.062;5.804;2023-05-10T13:32:33;26.78;102.72
66726;HTU21D;53638;51.062;5.804;2023-05-10T13:34:59;27.89;91.79
66726;HTU21D;53638;51.062;5.804;2023-05-10T13:37:25;28.25;94.91
66726;HTU21D;53638;51.062;5.804;2023-05-10T13:39:51;27.60;94.76
66726;HTU21D;53638;51.062;5.804;2023-05-10T13:42:17;26.32;99.17
66726;HTU21D;53638;51.062;5.804;2023-05-10T13:44:44;25.13;104.21
66726;HTU21D;53638;51.062;5.804;2023-05-10T13:47:10;24.46;106.99
66726;HTU21D;53638;51.062;5.804;2023-05-10T13:49:36;23.99;110.13
66726;HTU21D;53638;51.062;5.804;2023-05-10T13:52:01;23.86;111.24
66726;HTU21D;53638;51.062;5.804;2023-05-10T13:54:34;23.84;111.58
66726;HTU21D;53638;51.062;5.804;2023-05-10T13:57:00;24.01;110.33
66726;HTU21D;53638;51.062;5.804;2023-05-10T13:59:26;24.65;107.65
66726;HTU21D;53638;51.062;5.804;2023-05-10T14:01:52;24.25;106.82
66726;HTU21D;53638;51.062;5.804;2023-05-10T14:04:18;23.56;111.02
66726;HTU21D;53638;51.062;5.804;2023-05-10T14:06:44;23.00;110.30
66726;HTU21D;53638;51.062;5.804;2023-05-10T14:09:09;22.20;104.41
66726;HTU21D;53638;51.062;5.804;2023-05-10T14:11:35;22.07;118.79
66726;HTU21D;53638;51.062;5.804;2023-05-10T14:14:01;22.13;114.00
66726;HTU21D;53638;51.062;5.804;2023-05-10T14:16:28;21.98;118.76
66726;HTU21D;53638;51.062;5.804;2023-05-10T14:57:50;25.14;101.39
66726;HTU21D;53638;51.062;5.804;2023-05-10T15:05:51;23.53;109.80
66726;HTU21D;53638;51.062;5.804;2023-05-10T15:18:50;27.43;95.20
66726;HTU21D;53638;51.062;5.804;2023-05-10T15:33:18;25.01;104.49
66726;HTU21D;53638;51.062;5.804;2023-05-10T15:39:32;22.65;111.65
66726;HTU21D;53638;51.062;5.804;2023-05-10T15:42:58;21.91;116.71
66726;HTU21D;53638;51.062;5.804;2023-05-10T15:45:59;21.29;118.99
66726;HTU21D;53638;51.062;5.804;2023-05-10T15:48:59;20.72;118.99
66726;HTU21D;53638;51.062;5.804;2023-05-10T15:52:21;20.35;118.99
66726;HTU21D;53638;51.062;5.804;2023-05-10T15:55:49;20.50;118.99
66726;HTU21D;53638;51.062;5.804;2023-05-10T15:59:00;20.19;118.99
66726;HTU21D;53638;51.062;5.804;2023-05-10T16:02:54;19.65;118.99
66726;HTU21D;53638;51.062;5.804;2023-05-10T16:05:26;19.44;118.99
66726;HTU21D;53638;51.062;5.804;2023-05-10T16:08:30;19.27;118.99
66726;HTU21D;53638;51.062;5.804;2023-05-10T16:11:23;19.12;118.99
66726;HTU21D;53638;51.062;5.804;2023-05-10T16:14:17;19.06;118.99
66726;HTU21D;53638;51.062;5.804;2023-05-10T16:17:40;19.02;118.99
66726;HTU21D;53638;51.062;5.804;2023-05-10T16:20:43;19.08;118.99
66726;HTU21D;53638;51.062;5.804;2023-05-10T16:23:10;19.09;118.99
66726;HTU21D;53638;51.062;5.804;2023-05-10T18:39:49;16.96;118.99
66726;HTU21D;53638;51.062;5.804;2023-05-10T19:23:32;16.70;118.99
66726;HTU21D;53638;51.062;5.804;2023-05-10T19:33:09;16.70;118.99
